sensor_id;sensor_type;location;lat;lon;timestamp;temperature;humidity
3548;DHT22;1788;49.400;11.092;2023-05-10T00:01:20;18.90;48.80
3548;DHT22;1788;49.400;11.092;2023-05-10T00:03:47;18.90;49.00
3548;DHT22;1788;49.400;11.092;2023-05-10T00:06:13;18.90;49.20
3548;DHT22;1788;49.400;11.092;2023-05-10T00:08:42;18.90;49.40
3548;DHT22;1788;49.400;11.092;2023-05-10T00:11:08;18.90;49.70
3548;DHT22;1788;49.400;11.092;2023-05-10T00:13:35;18.90;49.90
3548;DHT22;1788;49.400;11.092;2023-05-10T00:16:03;18.90;50.30
3548;DHT22;1788;49.400;11.092;2023-05-10T00:18:30;18.90;50.30
3548;DHT22;1788;49.400;11.092;2023-05-10T00:20:57;18.90;50.80
3548;DHT22;1788;49.400;11.092;2023-05-10T00:23:24;18.90;50.80
3548;DHT22;1788;49.400;11.092;2023-05-10T00:25:51;18.90;50.90
3548;DHT22;1788;49.400;11.092;2023-05-10T00:28:17;18.90;51.20
3548;DHT22;1788;49.400;11.092;2023-05-10T00:30:45;18.80;51.30
3548;DHT22;1788;49.400;11.092;2023-05-10T00:33:12;18.80;51.60
3548;DHT22;1788;49.400;11.092;2023-05-10T00:35:39;18.80;52.00
3548;DHT22;1788;49.400;11.092;2023-05-10T00:38:07;18.70;52.50
3548;DHT22;1788;49.400;11.092;2023-05-10T00:40:35;18.70;52.50
3548;DHT22;1788;49.400;11.092;2023-05-10T00:43:01;18.70;52.80
3548;DHT22;1788;49.400;11.092;2023-05-10T00:45:28;18.60;53.00
3548;DHT22;1788;49.400;11.092;2023-05-10T00:47:55;18.50;53.50
3548;DHT22;1788;49.400;11.092;2023-05-10T00:50:22;18.50;53.50
3548;DHT22;1788;49.400;11.092;2023-05-10T00:52:49;18.40;53.70
3548;DHT22;1788;49.400;11.092;2023-05-10T00:55:16;18.40;54.00
3548;DHT22;1788;49.400;11.092;2023-05-10T00:57:44;18.30;54.50
3548;DHT22;1788;49.400;11.092;2023-05-10T01:00:11;18.30;54.50
3548;DHT22;1788;49.400;11.092;2023-05-10T01:02:38;18.30;54.80
3548;DHT22;1788;49.400;11.092;2023-05-10T01:05:05;18.20;55.80
3548;DHT22;1788;49.400;11.092;2023-05-10T01:07:32;18.20;55.20
3548;DHT22;1788;49.400;11.092;2023-05-10T01:09:58;18.20;55.40
3548;DHT22;1788;49.400;11.092;2023-05-10T01:12:25;18.10;55.50
3548;DHT22;1788;49.400;11.092;2023-05-10T01:14:52;18.20;55.80
3548;DHT22;1788;49.400;11.092;2023-05-10T01:17:18;18.10;55.80
3548;DHT22;1788;49.400;11.092;2023-05-10T01:19:46;18.10;56.00
3548;DHT22;1788;49.400;11.092;2023-05-10T01:34:28;18.00;56.90
3548;DHT22;1788;49.400;11.092;2023-05-10T01:46:42;18.00;57.40
3548;DHT22;1788;49.400;11.092;2023-05-10T01:51:41;18.00;57.80
3548;DHT22;1788;49.400;11.092;2023-05-10T01:54:03;18.00;57.90
3548;DHT22;1788;49.400;11.092;2023-05-10T01:56:30;18.00;58.00
3548;DHT22;1788;49.400;11.092;2023-05-10T01:58:56;18.00;58.20
3548;DHT22;1788;49.400;11.092;2023-05-10T02:01:24;18.00;58.50
3548;DHT22;1788;49.400;11.092;2023-05-10T02:03:50;18.00;58.40
3548;DHT22;1788;49.400;11.092;2023-05-10T02:06:18;18.00;58.90
3548;DHT22;1788;49.400;11.092;2023-05-10T02:08:44;18.00;58.70
3548;DHT22;1788;49.400;11.092;2023-05-10T02:11:12;18.00;58.80
3548;DHT22;1788;49.400;11.092;2023-05-10T02:13:38;18.00;58.90
3548;DHT22;1788;49.400;11.092;2023-05-10T02:16:04;18.00;59.00
3548;DHT22;1788;49.400;11.092;2023-05-10T02:18:32;18.00;59.20
3548;DHT22;1788;49.400;11.092;2023-05-10T02:20:58;18.00;59.20
3548;DHT22;1788;49.400;11.092;2023-05-10T02:23:26;18.00;59.30
3548;DHT22;1788;49.400;11.092;2023-05-10T02:25:52;18.00;59.40
3548;DHT22;1788;49.400;11.092;2023-05-10T02:28:19;18.00;59.40
3548;DHT22;1788;49.400;11.092;2023-05-10T02:30:45;18.00;59.60
3548;DHT22;1788;49.400;11.092;2023-05-10T02:33:12;18.00;59.60
3548;DHT22;1788;49.400;11.092;2023-05-10T02:35:39;18.00;59.70
3548;DHT22;1788;49.400;11.092;2023-05-10T02:38:05;18.00;59.90
3548;DHT22;1788;49.400;11.092;2023-05-10T02:40:32;18.00;59.90
3548;DHT22;1788;49.400;11.092;2023-05-10T02:42:59;18.00;60.00
3548;DHT22;1788;49.400;11.092;2023-05-10T02:45:27;18.00;60.10
3548;DHT22;1788;49.400;11.092;2023-05-10T02:47:52;18.00;60.10
3548;DHT22;1788;49.400;11.092;2023-05-10T02:50:19;18.00;60.20
3548;DHT22;1788;49.400;11.092;2023-05-10T02:55:15;18.00;60.40
3548;DHT22;1788;49.400;11.092;2023-05-10T03:00:07;18.00;60.60
3548;DHT22;1788;49.400;11.092;2023-05-10T03:02:33;18.00;60.70
3548;DHT22;1788;49.400;11.092;2023-05-10T03:05:00;17.80;60.60
3548;DHT22;1788;49.400;11.092;2023-05-10T03:07:28;17.50;61.30
3548;DHT22;1788;49.400;11.092;2023-05-10T03:09:54;17.50;61.30
3548;DHT22;1788;49.400;11.092;2023-05-10T03:14:54;17.30;61.90
3548;DHT22;1788;49.400;11.092;2023-05-10T03:17:20;17.30;62.10
3548;DHT22;1788;49.400;11.092;2023-05-10T03:19:47;17.20;62.30
3548;DHT22;1788;49.400;11.092;2023-05-10T03:22:10;17.10;62.40
3548;DHT22;1788;49.400;11.092;2023-05-10T03:24:37;17.00;62.40
3548;DHT22;1788;49.400;11.092;2023-05-10T03:27:05;17.00;62.80
3548;DHT22;1788;49.400;11.092;2023-05-10T03:29:33;17.00;62.80
3548;DHT22;1788;49.400;11.092;2023-05-10T03:32:00;17.00;62.90
3548;DHT22;1788;49.400;11.092;2023-05-10T03:34:26;17.00;62.90
3548;DHT22;1788;49.400;11.092;2023-05-10T03:36:53;17.00;63.00
3548;DHT22;1788;49.400;11.092;2023-05-10T03:39:20;17.00;63.10
3548;DHT22;1788;49.400;11.092;2023-05-10T03:41:47;16.90;63.00
3548;DHT22;1788;49.400;11.092;2023-05-10T03:44:14;17.00;63.20
3548;DHT22;1788;49.400;11.092;2023-05-10T03:46:41;16.90;63.30
3548;DHT22;1788;49.400;11.092;2023-05-10T03:49:08;16.90;63.30
3548;DHT22;1788;49.400;11.092;2023-05-10T03:51:35;16.90;63.30
3548;DHT22;1788;49.400;11.092;2023-05-10T03:54:01;16.90;63.30
3548;DHT22;1788;49.400;11.092;2023-05-10T03:56:28;16.90;63.40
3548;DHT22;1788;49.400;11.092;2023-05-10T03:58:55;17.00;63.50
3548;DHT22;1788;49.400;11.092;2023-05-10T04:01:22;16.90;63.40
3548;DHT22;1788;49.400;11.092;2023-05-10T04:03:49;16.90;63.60
3548;DHT22;1788;49.400;11.092;2023-05-10T04:06:16;16.90;63.60
3548;DHT22;1788;49.400;11.092;2023-05-10T04:08:42;16.90;63.60
3548;DHT22;1788;49.400;11.092;2023-05-10T04:11:10;16.90;63.70
3548;DHT22;1788;49.400;11.092;2023-05-10T04:13:36;16.90;63.80
3548;DHT22;1788;49.400;11.092;2023-05-10T04:16:03;16.90;63.90
3548;DHT22;1788;49.400;11.092;2023-05-10T04:18:30;16.80;63.90
3548;DHT22;1788;49.400;11.092;2023-05-10T04:20:56;16.80;64.00
3548;DHT22;1788;49.400;11.092;2023-05-10T04:23:23;16.80;64.10
3548;DHT22;1788;49.400;11.092;2023-05-10T04:25:50;16.80;64.10
3548;DHT22;1788;49.400;11.092;2023-05-10T04:28:16;16.80;64.10
3548;DHT22;1788;49.400;11.092;2023-05-10T04:30:43;16.80;64.20
3548;DHT22;1788;49.400;11.092;2023-05-10T04:33:10;16.70;64.30
3548;DHT22;1788;49.400;11.092;2023-05-10T04:35:37;16.70;64.30
3548;DHT22;1788;49.400;11.092;2023-05-10T04:38:04;16.70;64.30
3548;DHT22;1788;49.400;11.092;2023-05-10T04:40:31;16.70;64.30
3548;DHT22;1788;49.400;11.092;2023-05-10T04:42:58;16.70;64.80
3548;DHT22;1788;49.400;11.092;2023-05-10T04:45:25;16.70;64.50
3548;DHT22;1788;49.400;11.092;2023-05-10T04:47:51;16.70;64.50
3548;DHT22;1788;49.400;11.092;2023-05-10T04:50:19;16.70;64.50
3548;DHT22;1788;49.400;11.092;2023-05-10T04:52:47;16.70;65.10
3548;DHT22;1788;49.400;11.092;2023-05-10T04:55:14;16.70;64.50
3548;DHT22;1788;49.400;11.092;2023-05-10T04:57:40;16.80;64.60
3548;DHT22;1788;49.400;11.092;2023-05-10T05:00:08;16.70;64.50
3548;DHT22;1788;49.400;11.092;2023-05-10T05:02:34;16.70;64.60
3548;DHT22;1788;49.400;11.092;2023-05-10T05:05:01;16.70;64.60
3548;DHT22;1788;49.400;11.092;2023-05-10T05:07:28;16.70;64.70
3548;DHT22;1788;49.400;11.092;2023-05-10T05:09:56;16.70;64.80
3548;DHT22;1788;49.400;11.092;2023-05-10T05:12:23;16.70;64.70
3548;DHT22;1788;49.400;11.092;2023-05-10T05:14:49;16.60;64.50
3548;DHT22;1788;49.400;11.092;2023-05-10T05:17:16;16.60;64.50
3548;DHT22;1788;49.400;11.092;2023-05-10T05:19:43;16.60;64.60
3548;DHT22;1788;49.400;11.092;2023-05-10T05:22:10;16.50;64.60
3548;DHT22;1788;49.400;11.092;2023-05-10T05:24:37;16.50;64.60
3548;DHT22;1788;49.400;11.092;2023-05-10T05:27:05;16.50;65.40
3548;DHT22;1788;49.400;11.092;2023-05-10T05:29:32;16.40;64.50
3548;DHT22;1788;49.400;11.092;2023-05-10T05:31:59;16.40;64.60
3548;DHT22;1788;49.400;11.092;2023-05-10T05:34:26;16.40;64.60
3548;DHT22;1788;49.400;11.092;2023-05-10T05:36:53;16.40;64.80
3548;DHT22;1788;49.400;11.092;2023-05-10T05:39:20;16.40;64.80
3548;DHT22;1788;49.400;11.092;2023-05-10T05:41:47;16.40;64.80
3548;DHT22;1788;49.400;11.092;2023-05-10T05:44:14;16.40;64.80
3548;DHT22;1788;49.400;11.092;2023-05-10T05:46:41;16.40;64.70
3548;DHT22;1788;49.400;11.092;2023-05-10T05:49:08;16.40;64.50
3548;DHT22;1788;49.400;11.092;2023-05-10T05:51:35;16.40;65.30
3548;DHT22;1788;49.400;11.092;2023-05-10T05:54:02;16.40;64.40
3548;DHT22;1788;49.400;11.092;2023-05-10T05:56:29;16.40;64.40
3548;DHT22;1788;49.400;11.092;2023-05-10T05:58:56;16.40;64.40
3548;DHT22;1788;49.400;11.092;2023-05-10T06:01:22;16.40;64.40
3548;DHT22;1788;49.400;11.092;2023-05-10T06:03:49;16.40;64.40
3548;DHT22;1788;49.400;11.092;2023-05-10T06:06:16;16.50;64.30
3548;DHT22;1788;49.400;11.092;2023-05-10T06:08:43;16.40;64.10
3548;DHT22;1788;49.400;11.092;2023-05-10T06:11:11;16.50;64.20
3548;DHT22;1788;49.400;11.092;2023-05-10T06:13:37;16.50;64.20
3548;DHT22;1788;49.400;11.092;2023-05-10T06:16:04;16.60;64.30
3548;DHT22;1788;49.400;11.092;2023-05-10T06:18:31;16.60;64.10
3548;DHT22;1788;49.400;11.092;2023-05-10T06:20:57;16.70;64.10
3548;DHT22;1788;49.400;11.092;2023-05-10T06:23:24;16.70;64.00
3548;DHT22;1788;49.400;11.092;2023-05-10T06:25:51;16.70;63.80
3548;DHT22;1788;49.400;11.092;2023-05-10T06:28:17;16.80;63.80
3548;DHT22;1788;49.400;11.092;2023-05-10T06:30:44;16.80;63.80
3548;DHT22;1788;49.400;11.092;2023-05-10T06:33:10;16.90;63.80
3548;DHT22;1788;49.400;11.092;2023-05-10T06:35:38;16.90;63.50
3548;DHT22;1788;49.400;11.092;2023-05-10T06:38:05;16.90;63.40
3548;DHT22;1788;49.400;11.092;2023-05-10T06:40:31;16.90;63.40
3548;DHT22;1788;49.400;11.092;2023-05-10T06:42:58;16.90;63.40
3548;DHT22;1788;49.400;11.092;2023-05-10T06:45:25;17.00;63.40
3548;DHT22;1788;49.400;11.092;2023-05-10T06:47:52;17.00;63.30
3548;DHT22;1788;49.400;11.092;2023-05-10T06:50:18;17.10;63.30
3548;DHT22;1788;49.400;11.092;2023-05-10T06:52:46;17.10;63.20
3548;DHT22;1788;49.400;11.092;2023-05-10T06:55:12;17.10;63.20
3548;DHT22;1788;49.400;11.092;2023-05-10T06:57:39;17.10;63.00
3548;DHT22;1788;49.400;11.092;2023-05-10T07:00:05;17.10;63.00
3548;DHT22;1788;49.400;11.092;2023-05-10T07:02:32;17.20;63.00
3548;DHT22;1788;49.400;11.092;2023-05-10T07:04:59;17.20;62.90
3548;DHT22;1788;49.400;11.092;2023-05-10T07:07:26;17.30;62.90
3548;DHT22;1788;49.400;11.092;2023-05-10T07:09:52;17.30;62.70
3548;DHT22;1788;49.400;11.092;2023-05-10T07:12:20;17.50;62.60
3548;DHT22;1788;49.400;11.092;2023-05-10T07:14:47;17.40;62.50
3548;DHT22;1788;49.400;11.092;2023-05-10T07:17:14;17.50;62.40
3548;DHT22;1788;49.400;11.092;2023-05-10T07:19:40;17.50;62.20
3548;DHT22;1788;49.400;11.092;2023-05-10T07:22:08;17.50;62.10
3548;DHT22;1788;49.400;11.092;2023-05-10T07:24:34;17.50;61.90
3548;DHT22;1788;49.400;11.092;2023-05-10T07:27:01;17.50;61.70
3548;DHT22;1788;49.400;11.092;2023-05-10T07:29:27;17.50;61.60
3548;DHT22;1788;49.400;11.092;2023-05-10T07:31:54;17.50;61.60
3548;DHT22;1788;49.400;11.092;2023-05-10T07:34:21;17.50;61.40
3548;DHT22;1788;49.400;11.092;2023-05-10T07:36:48;17.40;61.20
3548;DHT22;1788;49.400;11.092;2023-05-10T07:39:15;17.50;61.30
3548;DHT22;1788;49.400;11.092;2023-05-10T07:41:42;17.40;61.20
3548;DHT22;1788;49.400;11.092;2023-05-10T07:44:09;17.50;61.20
3548;DHT22;1788;49.400;11.092;2023-05-10T07:46:35;17.50;61.00
3548;DHT22;1788;49.400;11.092;2023-05-10T07:49:02;17.50;60.90
3548;DHT22;1788;49.400;11.092;2023-05-10T07:51:29;17.50;60.80
3548;DHT22;1788;49.400;11.092;2023-05-10T07:53:56;17.50;60.70
3548;DHT22;1788;49.400;11.092;2023-05-10T07:58:49;17.50;60.50
3548;DHT22;1788;49.400;11.092;2023-05-10T08:01:17;17.40;61.40
3548;DHT22;1788;49.400;11.092;2023-05-10T08:03:43;17.40;60.40
3548;DHT22;1788;49.400;11.092;2023-05-10T08:06:11;17.30;60.40
3548;DHT22;1788;49.400;11.092;2023-05-10T08:08:37;17.30;60.40
3548;DHT22;1788;49.400;11.092;2023-05-10T08:11:05;17.40;60.60
3548;DHT22;1788;49.400;11.092;2023-05-10T08:13:31;17.40;60.50
3548;DHT22;1788;49.400;11.092;2023-05-10T08:15:59;17.40;60.30
3548;DHT22;1788;49.400;11.092;2023-05-10T08:18:25;17.40;60.30
3548;DHT22;1788;49.400;11.092;2023-05-10T08:20:52;17.50;60.40
3548;DHT22;1788;49.400;11.092;2023-05-10T08:23:19;17.60;60.40
3548;DHT22;1788;49.400;11.092;2023-05-10T08:25:45;17.60;60.00
3548;DHT22;1788;49.400;11.092;2023-05-10T08:28:13;17.80;59.90
3548;DHT22;1788;49.400;11.092;2023-05-10T08:30:40;17.80;59.80
3548;DHT22;1788;49.400;11.092;2023-05-10T08:33:07;17.80;59.70
3548;DHT22;1788;49.400;11.092;2023-05-10T08:35:33;17.90;59.70
3548;DHT22;1788;49.400;11.092;2023-05-10T08:38:00;18.00;59.60
3548;DHT22;1788;49.400;11.092;2023-05-10T08:40:27;18.10;59.50
3548;DHT22;1788;49.400;11.092;2023-05-10T08:42:55;18.20;59.30
3548;DHT22;1788;49.400;11.092;2023-05-10T08:45:20;18.30;59.20
3548;DHT22;1788;49.400;11.092;2023-05-10T08:47:47;18.60;59.20
3548;DHT22;1788;49.400;11.092;2023-05-10T08:50:14;18.70;58.90
3548;DHT22;1788;49.400;11.092;2023-05-10T08:52:41;19.00;58.60
3548;DHT22;1788;49.400;11.092;2023-05-10T08:55:08;18.90;58.50
3548;DHT22;1788;49.400;11.092;2023-05-10T08:57:35;19.00;58.40
3548;DHT22;1788;49.400;11.092;2023-05-10T09:00:01;19.00;58.20
3548;DHT22;1788;49.400;11.092;2023-05-10T09:02:28;18.90;58.10
3548;DHT22;1788;49.400;11.092;2023-05-10T09:04:54;18.90;58.10
3548;DHT22;1788;49.400;11.092;2023-05-10T09:07:21;18.80;58.00
3548;DHT22;1788;49.400;11.092;2023-05-10T09:09:47;18.70;58.00
3548;DHT22;1788;49.400;11.092;2023-05-10T09:12:14;18.60;58.00
3548;DHT22;1788;49.400;11.092;2023-05-10T09:14:42;18.40;58.20
3548;DHT22;1788;49.400;11.092;2023-05-10T09:17:08;18.40;58.20
3548;DHT22;1788;49.400;11.092;2023-05-10T09:19:35;18.20;58.30
3548;DHT22;1788;49.400;11.092;2023-05-10T09:22:02;18.20;58.60
3548;DHT22;1788;49.400;11.092;2023-05-10T09:24:29;18.10;58.90
3548;DHT22;1788;49.400;11.092;2023-05-10T09:26:56;18.10;59.10
3548;DHT22;1788;49.400;11.092;2023-05-10T09:29:23;18.20;59.60
3548;DHT22;1788;49.400;11.092;2023-05-10T09:31:50;18.20;59.60
3548;DHT22;1788;49.400;11.092;2023-05-10T09:34:19;18.50;59.90
3548;DHT22;1788;49.400;11.092;2023-05-10T09:39:13;18.70;59.90
3548;DHT22;1788;49.400;11.092;2023-05-10T09:41:39;18.80;59.80
3548;DHT22;1788;49.400;11.092;2023-05-10T09:44:06;18.90;59.80
3548;DHT22;1788;49.400;11.092;2023-05-10T09:46:34;19.00;59.70
3548;DHT22;1788;49.400;11.092;2023-05-10T09:48:59;19.20;59.60
3548;DHT22;1788;49.400;11.092;2023-05-10T09:51:26;19.40;59.40
3548;DHT22;1788;49.400;11.092;2023-05-10T09:58:47;19.50;59.30
3548;DHT22;1788;49.400;11.092;2023-05-10T10:01:14;19.60;59.60
3548;DHT22;1788;49.400;11.092;2023-05-10T10:03:42;19.60;59.10
3548;DHT22;1788;49.400;11.092;2023-05-10T10:06:08;19.70;59.20
3548;DHT22;1788;49.400;11.092;2023-05-10T10:08:36;19.90;59.20
3548;DHT22;1788;49.400;11.092;2023-05-10T10:11:03;20.20;58.60
3548;DHT22;1788;49.400;11.092;2023-05-10T10:13:30;20.20;58.60
3548;DHT22;1788;49.400;11.092;2023-05-10T10:15:57;20.20;58.30
3548;DHT22;1788;49.400;11.092;2023-05-10T10:18:24;20.20;58.30
3548;DHT22;1788;49.400;11.092;2023-05-10T10:20:51;20.00;58.00
3548;DHT22;1788;49.400;11.092;2023-05-10T10:23:18;20.10;58.10
3548;DHT22;1788;49.400;11.092;2023-05-10T10:25:45;20.00;57.80
3548;DHT22;1788;49.400;11.092;2023-05-10T10:30:40;19.80;57.60
3548;DHT22;1788;49.400;11.092;2023-05-10T10:35:33;19.80;57.50
3548;DHT22;1788;49.400;11.092;2023-05-10T10:38:00;19.80;57.30
3548;DHT22;1788;49.400;11.092;2023-05-10T10:40:27;19.70;56.90
3548;DHT22;1788;49.400;11.092;2023-05-10T10:42:53;19.70;56.70
3548;DHT22;1788;49.400;11.092;2023-05-10T10:45:20;19.60;56.50
3548;DHT22;1788;49.400;11.092;2023-05-10T10:47:46;19.50;56.30
3548;DHT22;1788;49.400;11.092;2023-05-10T10:50:13;19.50;56.20
3548;DHT22;1788;49.400;11.092;2023-05-10T10:52:40;19.50;56.00
3548;DHT22;1788;49.400;11.092;2023-05-10T10:55:10;19.50;56.00
3548;DHT22;1788;49.400;11.092;2023-05-10T11:04:55;19.50;55.40
3548;DHT22;1788;49.400;11.092;2023-05-10T11:07:21;19.50;55.10
3548;DHT22;1788;49.400;11.092;2023-05-10T11:09:48;19.50;54.90
3548;DHT22;1788;49.400;11.092;2023-05-10T11:12:15;19.50;54.70
3548;DHT22;1788;49.400;11.092;2023-05-10T11:14:41;19.40;54.50
3548;DHT22;1788;49.400;11.092;2023-05-10T11:19:34;19.40;54.50
3548;DHT22;1788;49.400;11.092;2023-05-10T11:24:28;19.20;54.20
3548;DHT22;1788;49.400;11.092;2023-05-10T11:26:55;19.20;54.20
3548;DHT22;1788;49.400;11.092;2023-05-10T11:29:22;19.20;54.20
3548;DHT22;1788;49.400;11.092;2023-05-10T11:31:48;19.20;54.10
3548;DHT22;1788;49.400;11.092;2023-05-10T11:36:42;19.50;54.30
3548;DHT22;1788;49.400;11.092;2023-05-10T11:39:09;19.40;54.20
3548;DHT22;1788;49.400;11.092;2023-05-10T11:41:36;19.70;54.10
3548;DHT22;1788;49.400;11.092;2023-05-10T11:44:03;19.70;54.10
3548;DHT22;1788;49.400;11.092;2023-05-10T11:46:29;19.80;54.00
3548;DHT22;1788;49.400;11.092;2023-05-10T11:51:23;19.80;53.90
3548;DHT22;1788;49.400;11.092;2023-05-10T11:53:52;19.70;54.00
3548;DHT22;1788;49.400;11.092;2023-05-10T11:56:17;19.70;53.90
3548;DHT22;1788;49.400;11.092;2023-05-10T11:58:45;19.50;54.10
3548;DHT22;1788;49.400;11.092;2023-05-10T12:01:11;19.50;54.10
3548;DHT22;1788;49.400;11.092;2023-05-10T12:03:39;19.30;54.20
3548;DHT22;1788;49.400;11.092;2023-05-10T12:06:06;19.30;54.20
3548;DHT22;1788;49.400;11.092;2023-05-10T12:08:32;19.20;54.20
3548;DHT22;1788;49.400;11.092;2023-05-10T12:13:25;19.20;54.60
3548;DHT22;1788;49.400;11.092;2023-05-10T12:15:52;19.20;54.60
3548;DHT22;1788;49.400;11.092;2023-05-10T12:18:22;19.20;54.60
3548;DHT22;1788;49.400;11.092;2023-05-10T12:20:46;19.20;54.80
3548;DHT22;1788;49.400;11.092;2023-05-10T12:23:13;19.20;54.50
3548;DHT22;1788;49.400;11.092;2023-05-10T12:25:40;19.20;54.50
3548;DHT22;1788;49.400;11.092;2023-05-10T12:28:07;19.20;54.50
3548;DHT22;1788;49.400;11.092;2023-05-10T12:30:34;19.20;54.30
3548;DHT22;1788;49.400;11.092;2023-05-10T12:35:29;19.30;54.00
3548;DHT22;1788;49.400;11.092;2023-05-10T12:37:54;19.40;53.70
3548;DHT22;1788;49.400;11.092;2023-05-10T12:40:21;19.40;53.70
3548;DHT22;1788;49.400;11.092;2023-05-10T12:42:48;19.70;53.70
3548;DHT22;1788;49.400;11.092;2023-05-10T12:45:15;19.60;53.60
3548;DHT22;1788;49.400;11.092;2023-05-10T12:47:41;19.80;53.30
3548;DHT22;1788;49.400;11.092;2023-05-10T12:50:08;19.80;53.00
3548;DHT22;1788;49.400;11.092;2023-05-10T12:52:35;19.80;52.90
3548;DHT22;1788;49.400;11.092;2023-05-10T12:55:02;19.80;52.70
3548;DHT22;1788;49.400;11.092;2023-05-10T12:57:28;19.70;52.60
3548;DHT22;1788;49.400;11.092;2023-05-10T12:59:55;19.70;52.60
3548;DHT22;1788;49.400;11.092;2023-05-10T13:02:21;19.60;52.60
3548;DHT22;1788;49.400;11.092;2023-05-10T13:04:49;19.60;52.70
3548;DHT22;1788;49.400;11.092;2023-05-10T13:07:15;19.60;53.20
3548;DHT22;1788;49.400;11.092;2023-05-10T13:09:43;19.50;52.60
3548;DHT22;1788;49.400;11.092;2023-05-10T13:12:09;19.50;52.60
3548;DHT22;1788;49.400;11.092;2023-05-10T13:14:37;19.50;52.70
3548;DHT22;1788;49.400;11.092;2023-05-10T13:17:04;19.40;52.70
3548;DHT22;1788;49.400;11.092;2023-05-10T13:19:31;19.40;52.80
3548;DHT22;1788;49.400;11.092;2023-05-10T13:21:58;19.40;52.80
3548;DHT22;1788;49.400;11.092;2023-05-10T13:24:24;19.40;52.90
3548;DHT22;1788;49.400;11.092;2023-05-10T13:26:51;19.40;53.00
3548;DHT22;1788;49.400;11.092;2023-05-10T13:29:19;19.40;53.10
3548;DHT22;1788;49.400;11.092;2023-05-10T13:31:46;19.40;53.10
3548;DHT22;1788;49.400;11.092;2023-05-10T13:34:12;19.40;53.10
3548;DHT22;1788;49.400;11.092;2023-05-10T13:36:39;19.50;53.20
3548;DHT22;1788;49.400;11.092;2023-05-10T13:39:06;19.70;53.20
3548;DHT22;1788;49.400;11.092;2023-05-10T13:41:33;19.60;53.10
3548;DHT22;1788;49.400;11.092;2023-05-10T13:43:59;19.80;53.00
3548;DHT22;1788;49.400;11.092;2023-05-10T13:46:28;19.80;52.90
3548;DHT22;1788;49.400;11.092;2023-05-10T13:48:53;19.90;52.90
3548;DHT22;1788;49.400;11.092;2023-05-10T13:51:21;20.00;52.90
3548;DHT22;1788;49.400;11.092;2023-05-10T13:53:47;20.00;52.80
3548;DHT22;1788;49.400;11.092;2023-05-10T13:56:14;20.10;52.80
3548;DHT22;1788;49.400;11.092;2023-05-10T13:58:41;20.10;52.80
3548;DHT22;1788;49.400;11.092;2023-05-10T14:01:07;20.10;52.80
3548;DHT22;1788;49.400;11.092;2023-05-10T14:03:34;20.20;52.90
3548;DHT22;1788;49.400;11.092;2023-05-10T14:06:01;20.20;52.80
3548;DHT22;1788;49.400;11.092;2023-05-10T14:08:27;20.20;52.80
3548;DHT22;1788;49.400;11.092;2023-05-10T14:10:54;20.30;52.90
3548;DHT22;1788;49.400;11.092;2023-05-10T14:13:20;20.20;52.70
3548;DHT22;1788;49.400;11.092;2023-05-10T14:15:47;20.30;52.60
3548;DHT22;1788;49.400;11.092;2023-05-10T14:18:14;20.30;52.40
3548;DHT22;1788;49.400;11.092;2023-05-10T14:20:40;20.30;52.20
3548;DHT22;1788;49.400;11.092;2023-05-10T14:23:07;20.20;52.00
3548;DHT22;1788;49.400;11.092;2023-05-10T14:25:33;20.20;52.00
3548;DHT22;1788;49.400;11.092;2023-05-10T14:28:01;20.10;51.80
3548;DHT22;1788;49.400;11.092;2023-05-10T14:30:27;20.10;51.90
3548;DHT22;1788;49.400;11.092;2023-05-10T14:32:54;20.10;51.90
3548;DHT22;1788;49.400;11.092;2023-05-10T14:35:21;20.10;51.90
3548;DHT22;1788;49.400;11.092;2023-05-10T14:37:48;20.10;51.90
3548;DHT22;1788;49.400;11.092;2023-05-10T14:40:15;20.10;51.90
3548;DHT22;1788;49.400;11.092;2023-05-10T14:42:42;20.20;51.90
3548;DHT22;1788;49.400;11.092;2023-05-10T14:45:08;20.20;51.90
3548;DHT22;1788;49.400;11.092;2023-05-10T14:47:35;20.30;51.90
3548;DHT22;1788;49.400;11.092;2023-05-10T14:50:02;20.40;51.90
3548;DHT22;1788;49.400;11.092;2023-05-10T14:52:29;20.40;51.70
3548;DHT22;1788;49.400;11.092;2023-05-10T14:54:55;20.40;51.70
3548;DHT22;1788;49.400;11.092;2023-05-10T14:57:22;20.40;51.70
3548;DHT22;1788;49.400;11.092;2023-05-10T14:59:48;20.40;51.70
3548;DHT22;1788;49.400;11.092;2023-05-10T15:02:15;20.40;51.80
3548;DHT22;1788;49.400;11.092;2023-05-10T15:04:42;20.30;51.80
3548;DHT22;1788;49.400;11.092;2023-05-10T15:07:08;20.40;52.00
3548;DHT22;1788;49.400;11.092;2023-05-10T15:09:35;20.40;52.00
3548;DHT22;1788;49.400;11.092;2023-05-10T15:12:02;20.50;52.00
3548;DHT22;1788;49.400;11.092;2023-05-10T15:14:29;20.60;52.00
3548;DHT22;1788;49.400;11.092;2023-05-10T15:16:55;20.70;52.00
3548;DHT22;1788;49.400;11.092;2023-05-10T15:19:22;20.70;51.90
3548;DHT22;1788;49.400;11.092;2023-05-10T15:21:50;20.80;52.00
3548;DHT22;1788;49.400;11.092;2023-05-10T15:24:17;20.70;51.80
3548;DHT22;1788;49.400;11.092;2023-05-10T15:26:44;20.70;51.80
3548;DHT22;1788;49.400;11.092;2023-05-10T15:29:11;20.60;51.60
3548;DHT22;1788;49.400;11.092;2023-05-10T15:31:37;20.50;51.50
3548;DHT22;1788;49.400;11.092;2023-05-10T15:34:04;20.40;51.50
3548;DHT22;1788;49.400;11.092;2023-05-10T15:36:31;20.20;51.20
3548;DHT22;1788;49.400;11.092;2023-05-10T15:38:58;20.20;51.20
3548;DHT22;1788;49.400;11.092;2023-05-10T15:41:24;20.00;51.00
3548;DHT22;1788;49.400;11.092;2023-05-10T15:43:51;19.90;50.50
3548;DHT22;1788;49.400;11.092;2023-05-10T15:46:18;19.70;51.00
3548;DHT22;1788;49.400;11.092;2023-05-10T15:48:44;19.60;51.00
3548;DHT22;1788;49.400;11.092;2023-05-10T15:51:11;19.50;51.00
3548;DHT22;1788;49.400;11.092;2023-05-10T15:53:37;19.40;50.90
3548;DHT22;1788;49.400;11.092;2023-05-10T15:58:32;19.20;50.90
3548;DHT22;1788;49.400;11.092;2023-05-10T16:00:59;19.10;50.90
3548;DHT22;1788;49.400;11.092;2023-05-10T16:03:26;19.00;50.90
3548;DHT22;1788;49.400;11.092;2023-05-10T16:05:53;19.00;50.90
3548;DHT22;1788;49.400;11.092;2023-05-10T16:08:20;18.90;50.80
3548;DHT22;1788;49.400;11.092;2023-05-10T16:10:47;18.90;50.80
3548;DHT22;1788;49.400;11.092;2023-05-10T16:13:14;18.70;50.90
3548;DHT22;1788;49.400;11.092;2023-05-10T16:15:42;18.70;50.80
3548;DHT22;1788;49.400;11.092;2023-05-10T16:18:08;18.70;50.90
3548;DHT22;1788;49.400;11.092;2023-05-10T16:20:35;18.60;51.00
3548;DHT22;1788;49.400;11.092;2023-05-10T16:23:03;18.60;51.20
3548;DHT22;1788;49.400;11.092;2023-05-10T16:25:30;18.50;52.10
3548;DHT22;1788;49.400;11.092;2023-05-10T16:27:56;18.40;51.60
3548;DHT22;1788;49.400;11.092;2023-05-10T16:30:23;18.40;51.80
3548;DHT22;1788;49.400;11.092;2023-05-10T16:32:49;18.40;52.60
3548;DHT22;1788;49.400;11.092;2023-05-10T16:35:16;18.40;52.20
3548;DHT22;1788;49.400;11.092;2023-05-10T16:37:43;18.40;52.50
3548;DHT22;1788;49.400;11.092;2023-05-10T16:40:10;18.40;52.50
3548;DHT22;1788;49.400;11.092;2023-05-10T16:42:37;18.30;52.70
3548;DHT22;1788;49.400;11.092;2023-05-10T16:45:04;18.30;52.70
3548;DHT22;1788;49.400;11.092;2023-05-10T16:47:32;18.30;53.00
3548;DHT22;1788;49.400;11.092;2023-05-10T16:49:59;18.30;53.00
3548;DHT22;1788;49.400;11.092;2023-05-10T16:52:24;18.30;53.20